Impacts METAR Board
IDs:

KERV - Kerrville Muni, TX, US

Updated at: 0000 UTC 01 Nov 2020
Potential Impact None Slight Moderate High
Time 31/12Z 31/13Z 31/14Z 31/15Z 31/16Z 31/17Z 31/18Z 31/19Z 31/20Z 31/21Z 31/22Z 31/23Z 01/00Z
Temp33 33 38 52 61 65 69 73 76 76 77 76 67
Dewpt31 31 35 41 40 40 39 37 38 36 36 37 38
Altim30.21 30.21 30.22 30.24 30.24 30.22 30.20 30.16 30.14 30.11 30.11 30.11 30.13
VIS10 10 10 10 10 10 10 10 10 10 10 10 10
CIG-- -- -- -- -- -- -- -- -- -- -- -- --
CoverCLRCLRCLRCLRCLRCLRCLRCLRCLRCLRCLRCLRCLR
FltCatVFRVFRVFRVFRVFRVFRVFRVFRVFRVFRVFRVFRVFR
WX--------------------------
WDir0000180190180190250160190170170
WSpd0 0 0 0 10 8 6 8 7 6 9 8 4
WGst-- -- -- -- 14 -- -- -- -- -- -- -- --
Raw hourly METARs
KERV 311155Z AUTO 00000KT 10SM CLR 01/M01 A3021 RMK AO2 T00081006 10050 20006
KERV 311255Z AUTO 00000KT 10SM CLR 01/00 A3021 RMK AO2 T00081005
KERV 311355Z AUTO 00000KT 10SM CLR 04/02 A3022 RMK AO2 T00360016
KERV 311455Z AUTO 00000KT 10SM CLR 11/05 A3024 RMK AO2 T01120052
KERV 311555Z AUTO 18010G14KT 10SM CLR 16/05 A3024 RMK AO2 T01630047
KERV 311655Z AUTO 19008KT 10SM CLR 18/04 A3022 RMK AO2 T01830043
KERV 311755Z AUTO 18006KT 150V210 10SM CLR 21/04 A3020 RMK AO2 T02070040 10207 20000
KERV 311855Z AUTO 19008KT 160V220 10SM CLR 23/03 A3016 RMK AO2 T02250030
KERV 311955Z AUTO 25007KT 10SM CLR 25/03 A3014 RMK AO2 T02470031
KERV 312055Z AUTO 16006KT 10SM CLR 25/02 A3011 RMK AO2 T02470021
KERV 312155Z AUTO 19009KT 10SM CLR 25/02 A3011 RMK AO2 T02490020
KERV 312255Z AUTO 17008KT 10SM CLR 25/03 A3011 RMK AO2 T02470025
KERV 312355Z AUTO 17004KT 10SM CLR 19/04 A3013 RMK AO2 T01920035 10250 20192